sensor_id;sensor_type;location;lat;lon;timestamp;temperature;humidity
8910;DHT22;4490;49.072;8.804;2022-12-19T00:01:10;-0.10;99.90
8910;DHT22;4490;49.072;8.804;2022-12-19T00:03:45;-0.10;99.90
8910;DHT22;4490;49.072;8.804;2022-12-19T00:06:11;-0.10;99.90
8910;DHT22;4490;49.072;8.804;2022-12-19T00:08:37;-0.10;99.90
8910;DHT22;4490;49.072;8.804;2022-12-19T00:11:03;-0.10;99.90
8910;DHT22;4490;49.072;8.804;2022-12-19T00:13:30;-0.10;99.90
8910;DHT22;4490;49.072;8.804;2022-12-19T00:16:05;-0.10;99.90
8910;DHT22;4490;49.072;8.804;2022-12-19T00:18:31;-0.10;99.90
8910;DHT22;4490;49.072;8.804;2022-12-19T00:20:59;-0.10;99.90
8910;DHT22;4490;49.072;8.804;2022-12-19T00:23:27;-0.10;99.90
8910;DHT22;4490;49.072;8.804;2022-12-19T00:25:53;-0.10;99.90
8910;DHT22;4490;49.072;8.804;2022-12-19T00:28:19;-0.10;99.90
8910;DHT22;4490;49.072;8.804;2022-12-19T00:30:45;-0.10;99.90
8910;DHT22;4490;49.072;8.804;2022-12-19T00:33:10;-0.10;99.90
8910;DHT22;4490;49.072;8.804;2022-12-19T00:35:36;-0.10;99.90
8910;DHT22;4490;49.072;8.804;2022-12-19T00:38:01;-0.20;99.90
8910;DHT22;4490;49.072;8.804;2022-12-19T00:40:28;-0.10;99.90
8910;DHT22;4490;49.072;8.804;2022-12-19T00:42:53;-0.20;99.90
8910;DHT22;4490;49.072;8.804;2022-12-19T00:45:20;-0.20;99.90
8910;DHT22;4490;49.072;8.804;2022-12-19T00:47:46;-0.20;99.90
8910;DHT22;4490;49.072;8.804;2022-12-19T00:50:11;-0.20;99.90
8910;DHT22;4490;49.072;8.804;2022-12-19T00:52:37;-0.20;99.90
8910;DHT22;4490;49.072;8.804;2022-12-19T00:55:02;-0.20;99.90
8910;DHT22;4490;49.072;8.804;2022-12-19T00:57:28;-0.20;99.90
8910;DHT22;4490;49.072;8.804;2022-12-19T00:59:54;-0.10;99.90
8910;DHT22;4490;49.072;8.804;2022-12-19T01:02:19;-0.20;99.90
8910;DHT22;4490;49.072;8.804;2022-12-19T01:04:45;-0.20;99.90
8910;DHT22;4490;49.072;8.804;2022-12-19T01:07:10;-0.20;99.90
8910;DHT22;4490;49.072;8.804;2022-12-19T01:09:36;-0.20;99.90
8910;DHT22;4490;49.072;8.804;2022-12-19T01:12:04;-0.10;99.90
8910;DHT22;4490;49.072;8.804;2022-12-19T01:14:50;-0.10;99.90
8910;DHT22;4490;49.072;8.804;2022-12-19T01:17:16;-0.20;99.90
8910;DHT22;4490;49.072;8.804;2022-12-19T01:19:41;-0.20;99.90
8910;DHT22;4490;49.072;8.804;2022-12-19T01:22:07;-0.10;99.90
8910;DHT22;4490;49.072;8.804;2022-12-19T01:24:33;-0.10;99.90
8910;DHT22;4490;49.072;8.804;2022-12-19T01:26:58;-0.10;99.90
8910;DHT22;4490;49.072;8.804;2022-12-19T01:29:24;-0.10;99.90
8910;DHT22;4490;49.072;8.804;2022-12-19T01:31:49;-0.10;99.90
8910;DHT22;4490;49.072;8.804;2022-12-19T01:34:15;0.00;99.90
8910;DHT22;4490;49.072;8.804;2022-12-19T01:36:41;0.00;99.90
8910;DHT22;4490;49.072;8.804;2022-12-19T01:39:07;0.00;99.90
8910;DHT22;4490;49.072;8.804;2022-12-19T01:41:32;0.00;99.90
8910;DHT22;4490;49.072;8.804;2022-12-19T01:44:00;0.00;99.90
8910;DHT22;4490;49.072;8.804;2022-12-19T01:46:46;0.00;99.90
8910;DHT22;4490;49.072;8.804;2022-12-19T01:51:48;0.00;99.90
8910;DHT22;4490;49.072;8.804;2022-12-19T01:54:18;0.00;99.90
8910;DHT22;4490;49.072;8.804;2022-12-19T01:56:46;0.10;99.90
8910;DHT22;4490;49.072;8.804;2022-12-19T01:59:17;0.10;99.90
8910;DHT22;4490;49.072;8.804;2022-12-19T02:01:44;0.00;99.90
8910;DHT22;4490;49.072;8.804;2022-12-19T02:04:09;0.10;99.90
8910;DHT22;4490;49.072;8.804;2022-12-19T02:06:38;0.10;99.90
8910;DHT22;4490;49.072;8.804;2022-12-19T02:09:04;0.00;99.90
8910;DHT22;4490;49.072;8.804;2022-12-19T02:11:30;0.10;99.90
8910;DHT22;4490;49.072;8.804;2022-12-19T02:13:56;0.10;99.90
8910;DHT22;4490;49.072;8.804;2022-12-19T02:16:35;0.10;99.90
8910;DHT22;4490;49.072;8.804;2022-12-19T02:27:44;0.10;99.90
8910;DHT22;4490;49.072;8.804;2022-12-19T02:31:05;0.10;99.90
8910;DHT22;4490;49.072;8.804;2022-12-19T02:39:12;0.10;99.90
8910;DHT22;4490;49.072;8.804;2022-12-19T02:44:16;0.20;99.90
8910;DHT22;4490;49.072;8.804;2022-12-19T02:46:45;0.20;99.90
8910;DHT22;4490;49.072;8.804;2022-12-19T02:49:12;0.20;99.90
8910;DHT22;4490;49.072;8.804;2022-12-19T02:51:38;0.20;99.90
8910;DHT22;4490;49.072;8.804;2022-12-19T02:54:04;0.30;99.90
8910;DHT22;4490;49.072;8.804;2022-12-19T02:56:45;0.30;99.90
8910;DHT22;4490;49.072;8.804;2022-12-19T03:07:55;0.40;99.90
8910;DHT22;4490;49.072;8.804;2022-12-19T03:10:58;0.30;99.90
8910;DHT22;4490;49.072;8.804;2022-12-19T03:13:20;0.40;99.90
8910;DHT22;4490;49.072;8.804;2022-12-19T03:15:48;0.40;99.90
8910;DHT22;4490;49.072;8.804;2022-12-19T03:18:13;0.40;99.90
8910;DHT22;4490;49.072;8.804;2022-12-19T03:23:28;0.40;99.90
8910;DHT22;4490;49.072;8.804;2022-12-19T03:25:59;0.40;99.90
8910;DHT22;4490;49.072;8.804;2022-12-19T03:28:32;0.50;99.90
8910;DHT22;4490;49.072;8.804;2022-12-19T03:31:00;0.50;99.90
8910;DHT22;4490;49.072;8.804;2022-12-19T03:33:28;0.50;99.90
8910;DHT22;4490;49.072;8.804;2022-12-19T03:35:57;0.50;99.90
8910;DHT22;4490;49.072;8.804;2022-12-19T03:38:25;0.50;99.90
8910;DHT22;4490;49.072;8.804;2022-12-19T03:40:52;0.60;99.90
8910;DHT22;4490;49.072;8.804;2022-12-19T03:43:20;0.60;99.90
8910;DHT22;4490;49.072;8.804;2022-12-19T03:45:56;0.60;99.90
8910;DHT22;4490;49.072;8.804;2022-12-19T03:54:22;0.70;99.90
8910;DHT22;4490;49.072;8.804;2022-12-19T03:56:55;0.70;99.90
8910;DHT22;4490;49.072;8.804;2022-12-19T04:01:57;0.80;99.90
8910;DHT22;4490;49.072;8.804;2022-12-19T04:04:24;0.80;99.90
8910;DHT22;4490;49.072;8.804;2022-12-19T04:06:52;0.80;99.90
8910;DHT22;4490;49.072;8.804;2022-12-19T04:09:21;0.80;99.90
8910;DHT22;4490;49.072;8.804;2022-12-19T04:11:51;0.80;99.90
8910;DHT22;4490;49.072;8.804;2022-12-19T04:14:25;0.90;99.90
8910;DHT22;4490;49.072;8.804;2022-12-19T04:20:10;1.00;99.90
8910;DHT22;4490;49.072;8.804;2022-12-19T04:25:20;0.90;99.90
8910;DHT22;4490;49.072;8.804;2022-12-19T04:27:56;1.00;99.90
8910;DHT22;4490;49.072;8.804;2022-12-19T04:30:23;1.00;99.90
8910;DHT22;4490;49.072;8.804;2022-12-19T04:32:49;1.00;99.90
8910;DHT22;4490;49.072;8.804;2022-12-19T04:35:15;1.00;99.90
8910;DHT22;4490;49.072;8.804;2022-12-19T04:37:40;1.00;99.90
8910;DHT22;4490;49.072;8.804;2022-12-19T04:40:07;1.00;99.90
8910;DHT22;4490;49.072;8.804;2022-12-19T04:42:33;1.00;99.90
8910;DHT22;4490;49.072;8.804;2022-12-19T04:44:59;1.00;99.90
8910;DHT22;4490;49.072;8.804;2022-12-19T04:47:24;1.00;99.90
8910;DHT22;4490;49.072;8.804;2022-12-19T04:49:50;1.00;99.90
8910;DHT22;4490;49.072;8.804;2022-12-19T04:52:16;1.00;99.90
8910;DHT22;4490;49.072;8.804;2022-12-19T04:54:41;1.00;99.90
8910;DHT22;4490;49.072;8.804;2022-12-19T04:57:07;1.00;99.90
8910;DHT22;4490;49.072;8.804;2022-12-19T04:59:33;1.00;99.90
8910;DHT22;4490;49.072;8.804;2022-12-19T05:01:59;1.00;99.90
8910;DHT22;4490;49.072;8.804;2022-12-19T05:04:24;1.10;99.90
8910;DHT22;4490;49.072;8.804;2022-12-19T05:06:50;1.10;99.90
8910;DHT22;4490;49.072;8.804;2022-12-19T05:09:15;1.10;99.90
8910;DHT22;4490;49.072;8.804;2022-12-19T05:11:41;1.10;99.90
8910;DHT22;4490;49.072;8.804;2022-12-19T05:14:07;1.10;99.90
8910;DHT22;4490;49.072;8.804;2022-12-19T05:16:32;1.10;99.90
8910;DHT22;4490;49.072;8.804;2022-12-19T05:18:58;1.10;99.90
8910;DHT22;4490;49.072;8.804;2022-12-19T05:21:24;1.10;99.90
8910;DHT22;4490;49.072;8.804;2022-12-19T05:23:50;1.20;99.90
8910;DHT22;4490;49.072;8.804;2022-12-19T05:26:16;1.20;99.90
8910;DHT22;4490;49.072;8.804;2022-12-19T05:28:41;1.20;99.90
8910;DHT22;4490;49.072;8.804;2022-12-19T05:31:11;1.20;99.90
8910;DHT22;4490;49.072;8.804;2022-12-19T05:33:38;1.30;99.90
8910;DHT22;4490;49.072;8.804;2022-12-19T05:36:05;1.30;99.90
8910;DHT22;4490;49.072;8.804;2022-12-19T05:38:31;1.30;99.90
8910;DHT22;4490;49.072;8.804;2022-12-19T05:40:56;1.30;99.90
8910;DHT22;4490;49.072;8.804;2022-12-19T05:43:22;1.30;99.90
8910;DHT22;4490;49.072;8.804;2022-12-19T05:45:48;1.40;99.90
8910;DHT22;4490;49.072;8.804;2022-12-19T05:48:14;1.40;99.90
8910;DHT22;4490;49.072;8.804;2022-12-19T05:50:39;1.40;99.90
8910;DHT22;4490;49.072;8.804;2022-12-19T05:53:05;1.40;99.90
8910;DHT22;4490;49.072;8.804;2022-12-19T05:55:31;1.40;99.90
8910;DHT22;4490;49.072;8.804;2022-12-19T05:57:56;1.40;99.90
8910;DHT22;4490;49.072;8.804;2022-12-19T06:00:22;1.40;99.90
8910;DHT22;4490;49.072;8.804;2022-12-19T06:02:48;1.30;99.90
8910;DHT22;4490;49.072;8.804;2022-12-19T06:05:13;1.40;99.90
8910;DHT22;4490;49.072;8.804;2022-12-19T06:07:39;1.40;99.90
8910;DHT22;4490;49.072;8.804;2022-12-19T06:10:05;1.40;99.90
8910;DHT22;4490;49.072;8.804;2022-12-19T06:12:31;1.40;99.90
8910;DHT22;4490;49.072;8.804;2022-12-19T06:14:57;1.40;99.90
8910;DHT22;4490;49.072;8.804;2022-12-19T06:17:22;1.40;99.90
8910;DHT22;4490;49.072;8.804;2022-12-19T06:19:48;1.50;99.90
8910;DHT22;4490;49.072;8.804;2022-12-19T06:22:14;1.50;99.90
8910;DHT22;4490;49.072;8.804;2022-12-19T06:24:39;1.50;99.90
8910;DHT22;4490;49.072;8.804;2022-12-19T06:27:05;1.60;99.90
8910;DHT22;4490;49.072;8.804;2022-12-19T06:29:30;1.60;99.90
8910;DHT22;4490;49.072;8.804;2022-12-19T06:31:56;1.60;99.90
8910;DHT22;4490;49.072;8.804;2022-12-19T06:34:22;1.60;99.90
8910;DHT22;4490;49.072;8.804;2022-12-19T06:36:47;1.60;99.90
8910;DHT22;4490;49.072;8.804;2022-12-19T06:39:14;1.60;99.90
8910;DHT22;4490;49.072;8.804;2022-12-19T06:41:40;1.60;99.90
8910;DHT22;4490;49.072;8.804;2022-12-19T06:44:24;1.60;99.90
8910;DHT22;4490;49.072;8.804;2022-12-19T06:46:51;1.60;99.90
8910;DHT22;4490;49.072;8.804;2022-12-19T06:49:17;1.60;99.90
8910;DHT22;4490;49.072;8.804;2022-12-19T06:51:42;1.60;99.90
8910;DHT22;4490;49.072;8.804;2022-12-19T06:54:12;1.60;99.90
8910;DHT22;4490;49.072;8.804;2022-12-19T06:56:39;1.60;99.90
8910;DHT22;4490;49.072;8.804;2022-12-19T06:59:06;1.60;99.90
8910;DHT22;4490;49.072;8.804;2022-12-19T07:04:31;1.70;99.90
8910;DHT22;4490;49.072;8.804;2022-12-19T07:06:58;1.70;99.90
8910;DHT22;4490;49.072;8.804;2022-12-19T07:09:25;1.70;99.90
8910;DHT22;4490;49.072;8.804;2022-12-19T07:11:52;1.70;99.90
8910;DHT22;4490;49.072;8.804;2022-12-19T07:14:17;1.70;99.90
8910;DHT22;4490;49.072;8.804;2022-12-19T07:16:44;1.70;99.90
8910;DHT22;4490;49.072;8.804;2022-12-19T07:19:10;1.70;99.90
8910;DHT22;4490;49.072;8.804;2022-12-19T07:21:37;1.70;99.90
8910;DHT22;4490;49.072;8.804;2022-12-19T07:24:03;1.70;99.90
8910;DHT22;4490;49.072;8.804;2022-12-19T07:26:29;1.70;99.90
8910;DHT22;4490;49.072;8.804;2022-12-19T07:28:56;1.70;99.90
8910;DHT22;4490;49.072;8.804;2022-12-19T07:31:22;1.70;99.90
8910;DHT22;4490;49.072;8.804;2022-12-19T07:33:48;1.70;99.90
8910;DHT22;4490;49.072;8.804;2022-12-19T07:36:13;1.70;99.90
8910;DHT22;4490;49.072;8.804;2022-12-19T07:38:39;1.70;99.90
8910;DHT22;4490;49.072;8.804;2022-12-19T07:41:05;1.80;99.90
8910;DHT22;4490;49.072;8.804;2022-12-19T07:43:30;1.80;99.90
8910;DHT22;4490;49.072;8.804;2022-12-19T07:45:56;1.80;99.90
8910;DHT22;4490;49.072;8.804;2022-12-19T07:48:22;1.80;99.90
8910;DHT22;4490;49.072;8.804;2022-12-19T07:50:48;1.90;99.90
8910;DHT22;4490;49.072;8.804;2022-12-19T07:53:14;1.90;99.90
8910;DHT22;4490;49.072;8.804;2022-12-19T07:55:40;1.90;99.90
8910;DHT22;4490;49.072;8.804;2022-12-19T07:58:06;1.90;99.90
8910;DHT22;4490;49.072;8.804;2022-12-19T08:00:33;1.90;99.90
8910;DHT22;4490;49.072;8.804;2022-12-19T08:02:59;1.90;99.90
8910;DHT22;4490;49.072;8.804;2022-12-19T08:05:25;1.90;99.90
8910;DHT22;4490;49.072;8.804;2022-12-19T08:07:50;2.00;99.90
8910;DHT22;4490;49.072;8.804;2022-12-19T08:10:16;2.00;99.90
8910;DHT22;4490;49.072;8.804;2022-12-19T08:12:42;2.00;99.90
8910;DHT22;4490;49.072;8.804;2022-12-19T08:15:08;2.00;99.90
8910;DHT22;4490;49.072;8.804;2022-12-19T08:17:33;2.00;99.90
8910;DHT22;4490;49.072;8.804;2022-12-19T08:19:59;2.00;99.90
8910;DHT22;4490;49.072;8.804;2022-12-19T08:22:25;2.00;99.90
8910;DHT22;4490;49.072;8.804;2022-12-19T08:24:50;2.00;99.90
8910;DHT22;4490;49.072;8.804;2022-12-19T08:27:16;2.10;99.90
8910;DHT22;4490;49.072;8.804;2022-12-19T08:29:42;2.10;99.90
8910;DHT22;4490;49.072;8.804;2022-12-19T08:32:07;2.10;99.90
8910;DHT22;4490;49.072;8.804;2022-12-19T08:34:34;2.20;99.90
8910;DHT22;4490;49.072;8.804;2022-12-19T08:37:00;2.20;99.90
8910;DHT22;4490;49.072;8.804;2022-12-19T08:39:25;2.20;99.90
8910;DHT22;4490;49.072;8.804;2022-12-19T08:41:51;2.20;99.90
8910;DHT22;4490;49.072;8.804;2022-12-19T08:44:16;2.20;99.90
8910;DHT22;4490;49.072;8.804;2022-12-19T08:46:42;2.20;99.90
8910;DHT22;4490;49.072;8.804;2022-12-19T08:49:08;2.20;99.90
8910;DHT22;4490;49.072;8.804;2022-12-19T08:51:33;2.20;99.90
8910;DHT22;4490;49.072;8.804;2022-12-19T08:53:59;2.20;99.90
8910;DHT22;4490;49.072;8.804;2022-12-19T08:56:24;2.20;99.90
8910;DHT22;4490;49.072;8.804;2022-12-19T08:58:50;2.20;99.90
8910;DHT22;4490;49.072;8.804;2022-12-19T09:01:18;2.20;99.90
8910;DHT22;4490;49.072;8.804;2022-12-19T09:03:45;2.20;99.90
8910;DHT22;4490;49.072;8.804;2022-12-19T09:06:12;2.30;99.90
8910;DHT22;4490;49.072;8.804;2022-12-19T09:08:39;2.30;99.90
8910;DHT22;4490;49.072;8.804;2022-12-19T09:11:10;2.30;99.90
8910;DHT22;4490;49.072;8.804;2022-12-19T09:13:37;2.30;99.90
8910;DHT22;4490;49.072;8.804;2022-12-19T09:16:18;2.30;99.90
8910;DHT22;4490;49.072;8.804;2022-12-19T09:18:45;2.40;99.90
8910;DHT22;4490;49.072;8.804;2022-12-19T09:21:11;2.40;99.90
8910;DHT22;4490;49.072;8.804;2022-12-19T09:23:39;2.50;99.90
8910;DHT22;4490;49.072;8.804;2022-12-19T09:26:08;2.50;99.90
8910;DHT22;4490;49.072;8.804;2022-12-19T09:28:35;2.50;99.90
8910;DHT22;4490;49.072;8.804;2022-12-19T09:31:07;2.60;99.90
8910;DHT22;4490;49.072;8.804;2022-12-19T09:33:34;2.60;99.90
8910;DHT22;4490;49.072;8.804;2022-12-19T09:36:00;2.70;99.90
8910;DHT22;4490;49.072;8.804;2022-12-19T09:38:27;2.70;99.90
8910;DHT22;4490;49.072;8.804;2022-12-19T09:46:21;2.90;99.90
8910;DHT22;4490;49.072;8.804;2022-12-19T09:48:53;3.00;99.90
8910;DHT22;4490;49.072;8.804;2022-12-19T09:51:38;3.10;99.90
8910;DHT22;4490;49.072;8.804;2022-12-19T09:56:38;3.20;99.90
8910;DHT22;4490;49.072;8.804;2022-12-19T10:02:19;3.30;99.90
8910;DHT22;4490;49.072;8.804;2022-12-19T10:04:54;3.30;99.90
8910;DHT22;4490;49.072;8.804;2022-12-19T10:07:24;3.40;99.90
8910;DHT22;4490;49.072;8.804;2022-12-19T10:09:49;3.40;99.90
8910;DHT22;4490;49.072;8.804;2022-12-19T10:26:26;3.80;99.90
8910;DHT22;4490;49.072;8.804;2022-12-19T10:29:23;3.90;99.90
8910;DHT22;4490;49.072;8.804;2022-12-19T10:32:01;3.90;99.90
8910;DHT22;4490;49.072;8.804;2022-12-19T10:34:54;4.00;99.90
8910;DHT22;4490;49.072;8.804;2022-12-19T10:37:38;4.00;99.90
8910;DHT22;4490;49.072;8.804;2022-12-19T10:40:22;4.10;99.90
8910;DHT22;4490;49.072;8.804;2022-12-19T10:45:44;4.20;99.90
8910;DHT22;4490;49.072;8.804;2022-12-19T10:48:28;4.20;99.90
8910;DHT22;4490;49.072;8.804;2022-12-19T10:50:54;4.20;99.90
8910;DHT22;4490;49.072;8.804;2022-12-19T10:53:29;4.20;99.90
8910;DHT22;4490;49.072;8.804;2022-12-19T10:56:01;4.30;99.90
8910;DHT22;4490;49.072;8.804;2022-12-19T10:58:37;4.30;99.90
8910;DHT22;4490;49.072;8.804;2022-12-19T11:01:14;4.40;99.90
8910;DHT22;4490;49.072;8.804;2022-12-19T11:03:43;4.40;99.90
8910;DHT22;4490;49.072;8.804;2022-12-19T11:06:41;4.40;99.90
8910;DHT22;4490;49.072;8.804;2022-12-19T11:09:21;4.50;99.90
8910;DHT22;4490;49.072;8.804;2022-12-19T11:11:55;4.50;99.90
8910;DHT22;4490;49.072;8.804;2022-12-19T11:14:26;4.50;99.90
8910;DHT22;4490;49.072;8.804;2022-12-19T11:16:53;4.60;99.90
8910;DHT22;4490;49.072;8.804;2022-12-19T11:21:51;4.70;99.90
8910;DHT22;4490;49.072;8.804;2022-12-19T11:24:26;4.80;99.90
8910;DHT22;4490;49.072;8.804;2022-12-19T11:26:52;4.80;99.90
8910;DHT22;4490;49.072;8.804;2022-12-19T11:32:27;5.00;99.90
8910;DHT22;4490;49.072;8.804;2022-12-19T11:35:04;5.10;99.90
8910;DHT22;4490;49.072;8.804;2022-12-19T11:37:52;5.10;99.90
8910;DHT22;4490;49.072;8.804;2022-12-19T11:53:21;5.40;99.90
8910;DHT22;4490;49.072;8.804;2022-12-19T11:58:25;5.50;99.90
8910;DHT22;4490;49.072;8.804;2022-12-19T12:06:15;5.60;99.90
8910;DHT22;4490;49.072;8.804;2022-12-19T12:08:55;5.60;99.90
8910;DHT22;4490;49.072;8.804;2022-12-19T12:17:04;5.40;99.90
8910;DHT22;4490;49.072;8.804;2022-12-19T12:22:34;5.30;99.90
8910;DHT22;4490;49.072;8.804;2022-12-19T12:25:54;5.30;99.90
8910;DHT22;4490;49.072;8.804;2022-12-19T12:33:28;5.20;99.90
8910;DHT22;4490;49.072;8.804;2022-12-19T12:36:01;5.20;99.90
8910;DHT22;4490;49.072;8.804;2022-12-19T12:38:42;5.10;99.90
8910;DHT22;4490;49.072;8.804;2022-12-19T12:41:23;5.10;99.90
8910;DHT22;4490;49.072;8.804;2022-12-19T12:44:11;5.10;99.90
8910;DHT22;4490;49.072;8.804;2022-12-19T12:46:47;5.20;99.90
8910;DHT22;4490;49.072;8.804;2022-12-19T12:49:41;5.20;99.90
8910;DHT22;4490;49.072;8.804;2022-12-19T12:52:14;5.30;99.90
8910;DHT22;4490;49.072;8.804;2022-12-19T12:54:43;5.30;99.90
8910;DHT22;4490;49.072;8.804;2022-12-19T12:59:45;5.40;99.90
8910;DHT22;4490;49.072;8.804;2022-12-19T13:02:19;5.40;99.90
8910;DHT22;4490;49.072;8.804;2022-12-19T13:05:00;5.40;99.90
8910;DHT22;4490;49.072;8.804;2022-12-19T13:07:50;5.40;99.90
8910;DHT22;4490;49.072;8.804;2022-12-19T13:10:36;5.50;99.90
8910;DHT22;4490;49.072;8.804;2022-12-19T13:13:07;5.50;99.90
8910;DHT22;4490;49.072;8.804;2022-12-19T13:15:37;5.50;99.90
8910;DHT22;4490;49.072;8.804;2022-12-19T13:18:38;5.50;99.90
8910;DHT22;4490;49.072;8.804;2022-12-19T13:21:06;5.60;99.90
8910;DHT22;4490;49.072;8.804;2022-12-19T13:23:41;5.50;99.90
8910;DHT22;4490;49.072;8.804;2022-12-19T13:26:43;5.60;99.90
8910;DHT22;4490;49.072;8.804;2022-12-19T13:30:24;5.60;99.90
8910;DHT22;4490;49.072;8.804;2022-12-19T13:33:04;5.70;99.90
8910;DHT22;4490;49.072;8.804;2022-12-19T13:37:43;5.60;99.90
8910;DHT22;4490;49.072;8.804;2022-12-19T13:43:34;5.60;99.90
8910;DHT22;4490;49.072;8.804;2022-12-19T13:46:35;5.60;99.90
8910;DHT22;4490;49.072;8.804;2022-12-19T13:51:45;5.50;99.90
8910;DHT22;4490;49.072;8.804;2022-12-19T13:54:23;5.40;99.90
8910;DHT22;4490;49.072;8.804;2022-12-19T13:56:51;5.40;99.90
8910;DHT22;4490;49.072;8.804;2022-12-19T13:59:18;5.40;99.90
8910;DHT22;4490;49.072;8.804;2022-12-19T14:01:45;5.30;99.90
8910;DHT22;4490;49.072;8.804;2022-12-19T14:06:56;5.30;99.90
8910;DHT22;4490;49.072;8.804;2022-12-19T14:09:28;5.30;99.90
8910;DHT22;4490;49.072;8.804;2022-12-19T14:11:57;5.30;99.90
8910;DHT22;4490;49.072;8.804;2022-12-19T14:14:24;5.20;99.90
8910;DHT22;4490;49.072;8.804;2022-12-19T14:17:19;5.20;99.90
8910;DHT22;4490;49.072;8.804;2022-12-19T14:19:49;5.20;99.90
8910;DHT22;4490;49.072;8.804;2022-12-19T14:25:02;5.10;99.90
8910;DHT22;4490;49.072;8.804;2022-12-19T14:27:59;5.10;99.90
8910;DHT22;4490;49.072;8.804;2022-12-19T14:30:30;5.00;99.90
8910;DHT22;4490;49.072;8.804;2022-12-19T14:32:57;5.00;99.90
8910;DHT22;4490;49.072;8.804;2022-12-19T14:35:32;4.90;99.90
8910;DHT22;4490;49.072;8.804;2022-12-19T14:38:01;4.90;99.90
8910;DHT22;4490;49.072;8.804;2022-12-19T14:40:30;4.80;99.90
8910;DHT22;4490;49.072;8.804;2022-12-19T14:43:03;4.80;99.90
8910;DHT22;4490;49.072;8.804;2022-12-19T14:45:52;4.70;99.90
8910;DHT22;4490;49.072;8.804;2022-12-19T14:48:31;4.70;99.90
8910;DHT22;4490;49.072;8.804;2022-12-19T14:51:10;4.60;99.90
8910;DHT22;4490;49.072;8.804;2022-12-19T14:53:38;4.60;99.90
8910;DHT22;4490;49.072;8.804;2022-12-19T14:56:17;4.50;99.90
8910;DHT22;4490;49.072;8.804;2022-12-19T14:58:52;4.50;99.90
8910;DHT22;4490;49.072;8.804;2022-12-19T15:01:31;4.50;99.90
8910;DHT22;4490;49.072;8.804;2022-12-19T15:04:03;4.40;99.90
8910;DHT22;4490;49.072;8.804;2022-12-19T15:06:32;4.40;99.90
8910;DHT22;4490;49.072;8.804;2022-12-19T15:09:04;4.30;99.90
8910;DHT22;4490;49.072;8.804;2022-12-19T15:11:43;4.30;99.90
8910;DHT22;4490;49.072;8.804;2022-12-19T15:14:31;4.20;99.90
8910;DHT22;4490;49.072;8.804;2022-12-19T15:19:39;4.10;99.90
8910;DHT22;4490;49.072;8.804;2022-12-19T15:22:04;4.00;99.90
8910;DHT22;4490;49.072;8.804;2022-12-19T15:24:30;3.90;99.90
8910;DHT22;4490;49.072;8.804;2022-12-19T15:26:55;3.90;99.90
8910;DHT22;4490;49.072;8.804;2022-12-19T15:29:21;3.80;99.90
8910;DHT22;4490;49.072;8.804;2022-12-19T15:31:46;3.80;99.90
8910;DHT22;4490;49.072;8.804;2022-12-19T15:36:49;3.70;99.90
8910;DHT22;4490;49.072;8.804;2022-12-19T15:39:15;3.60;99.90
8910;DHT22;4490;49.072;8.804;2022-12-19T15:41:42;3.60;99.90
8910;DHT22;4490;49.072;8.804;2022-12-19T15:44:14;3.60;99.90
8910;DHT22;4490;49.072;8.804;2022-12-19T15:46:40;3.50;99.90
8910;DHT22;4490;49.072;8.804;2022-12-19T15:49:12;3.50;99.90
8910;DHT22;4490;49.072;8.804;2022-12-19T15:51:37;3.40;99.90
8910;DHT22;4490;49.072;8.804;2022-12-19T15:54:03;3.40;99.90
8910;DHT22;4490;49.072;8.804;2022-12-19T15:56:31;3.40;99.90
8910;DHT22;4490;49.072;8.804;2022-12-19T15:58:59;3.40;99.90
8910;DHT22;4490;49.072;8.804;2022-12-19T16:01:26;3.40;99.90
8910;DHT22;4490;49.072;8.804;2022-12-19T16:03:54;3.30;99.90
8910;DHT22;4490;49.072;8.804;2022-12-19T16:06:20;3.30;99.90
8910;DHT22;4490;49.072;8.804;2022-12-19T16:08:46;3.20;99.90
8910;DHT22;4490;49.072;8.804;2022-12-19T16:11:20;3.20;99.90
8910;DHT22;4490;49.072;8.804;2022-12-19T16:14:05;3.20;99.90
8910;DHT22;4490;49.072;8.804;2022-12-19T16:16:30;3.20;99.90
8910;DHT22;4490;49.072;8.804;2022-12-19T16:18:56;3.20;99.90
8910;DHT22;4490;49.072;8.804;2022-12-19T16:21:23;3.10;99.90
8910;DHT22;4490;49.072;8.804;2022-12-19T16:23:50;3.10;99.90
8910;DHT22;4490;49.072;8.804;2022-12-19T16:26:33;3.10;99.90
8910;DHT22;4490;49.072;8.804;2022-12-19T16:29:00;3.00;99.90
8910;DHT22;4490;49.072;8.804;2022-12-19T16:31:26;3.00;99.90
8910;DHT22;4490;49.072;8.804;2022-12-19T16:33:52;3.00;99.90
8910;DHT22;4490;49.072;8.804;2022-12-19T16:36:18;3.00;99.90
8910;DHT22;4490;49.072;8.804;2022-12-19T16:38:43;2.90;99.90
8910;DHT22;4490;49.072;8.804;2022-12-19T16:41:19;2.90;99.90
8910;DHT22;4490;49.072;8.804;2022-12-19T16:43:46;2.90;99.90
8910;DHT22;4490;49.072;8.804;2022-12-19T16:46:30;2.90;99.90
8910;DHT22;4490;49.072;8.804;2022-12-19T16:48:56;2.80;99.90
8910;DHT22;4490;49.072;8.804;2022-12-19T16:51:26;2.80;99.90
8910;DHT22;4490;49.072;8.804;2022-12-19T16:53:55;2.80;99.90
8910;DHT22;4490;49.072;8.804;2022-12-19T16:56:37;2.80;99.90
8910;DHT22;4490;49.072;8.804;2022-12-19T16:59:16;2.80;99.90
8910;DHT22;4490;49.072;8.804;2022-12-19T17:01:43;2.70;99.90
8910;DHT22;4490;49.072;8.804;2022-12-19T17:04:14;2.70;99.90
8910;DHT22;4490;49.072;8.804;2022-12-19T17:06:40;2.70;99.90
8910;DHT22;4490;49.072;8.804;2022-12-19T17:09:06;2.70;99.90
8910;DHT22;4490;49.072;8.804;2022-12-19T17:11:32;2.70;99.90
8910;DHT22;4490;49.072;8.804;2022-12-19T17:14:03;2.70;99.90
8910;DHT22;4490;49.072;8.804;2022-12-19T17:16:29;2.60;99.90
8910;DHT22;4490;49.072;8.804;2022-12-19T17:18:57;2.60;99.90
8910;DHT22;4490;49.072;8.804;2022-12-19T17:21:23;2.60;99.90
8910;DHT22;4490;49.072;8.804;2022-12-19T17:23:50;2.60;99.90
8910;DHT22;4490;49.072;8.804;2022-12-19T17:26:16;2.50;99.90
8910;DHT22;4490;49.072;8.804;2022-12-19T17:28:42;2.50;99.90
8910;DHT22;4490;49.072;8.804;2022-12-19T17:31:25;2.50;99.90
8910;DHT22;4490;49.072;8.804;2022-12-19T17:33:51;2.50;99.90
8910;DHT22;4490;49.072;8.804;2022-12-19T17:36:18;2.50;99.90
8910;DHT22;4490;49.072;8.804;2022-12-19T17:38:44;2.50;99.90
8910;DHT22;4490;49.072;8.804;2022-12-19T17:41:14;2.50;99.90
8910;DHT22;4490;49.072;8.804;2022-12-19T17:43:42;2.60;99.90
8910;DHT22;4490;49.072;8.804;2022-12-19T17:46:19;2.60;99.90
8910;DHT22;4490;49.072;8.804;2022-12-19T17:48:47;2.60;99.90
8910;DHT22;4490;49.072;8.804;2022-12-19T17:51:17;2.60;99.90
8910;DHT22;4490;49.072;8.804;2022-12-19T17:53:45;2.60;99.90
8910;DHT22;4490;49.072;8.804;2022-12-19T17:56:16;2.60;99.90
8910;DHT22;4490;49.072;8.804;2022-12-19T17:58:42;2.60;99.90
8910;DHT22;4490;49.072;8.804;2022-12-19T18:01:19;2.60;99.90
8910;DHT22;4490;49.072;8.804;2022-12-19T18:03:46;2.60;99.90
8910;DHT22;4490;49.072;8.804;2022-12-19T18:06:12;2.60;99.90
8910;DHT22;4490;49.072;8.804;2022-12-19T18:08:38;2.60;99.90
8910;DHT22;4490;49.072;8.804;2022-12-19T18:11:06;2.60;99.90
8910;DHT22;4490;49.072;8.804;2022-12-19T18:13:36;2.60;99.90
8910;DHT22;4490;49.072;8.804;2022-12-19T18:16:02;2.60;99.90
8910;DHT22;4490;49.072;8.804;2022-12-19T18:18:35;2.60;99.90
8910;DHT22;4490;49.072;8.804;2022-12-19T18:21:01;2.60;99.90
8910;DHT22;4490;49.072;8.804;2022-12-19T18:23:29;2.60;99.90
8910;DHT22;4490;49.072;8.804;2022-12-19T18:25:55;2.60;99.90
8910;DHT22;4490;49.072;8.804;2022-12-19T18:28:21;2.70;99.90
8910;DHT22;4490;49.072;8.804;2022-12-19T18:30:48;2.70;99.90
8910;DHT22;4490;49.072;8.804;2022-12-19T18:33:20;2.70;99.90
8910;DHT22;4490;49.072;8.804;2022-12-19T18:35:47;2.70;99.90
8910;DHT22;4490;49.072;8.804;2022-12-19T18:38:16;2.70;99.90
8910;DHT22;4490;49.072;8.804;2022-12-19T18:40:42;2.70;99.90
8910;DHT22;4490;49.072;8.804;2022-12-19T18:43:16;2.70;99.90
8910;DHT22;4490;49.072;8.804;2022-12-19T18:45:44;2.70;99.90
8910;DHT22;4490;49.072;8.804;2022-12-19T18:48:22;2.70;99.90
8910;DHT22;4490;49.072;8.804;2022-12-19T18:50:49;2.80;99.90
8910;DHT22;4490;49.072;8.804;2022-12-19T18:53:18;2.70;99.90